sensor_id;sensor_type;location;lat;lon;timestamp;temperature;humidity
12452;DHT22;6291;48.924;12.204;2022-09-16T00:01:10;12.10;99.90
12452;DHT22;6291;48.924;12.204;2022-09-16T00:06:20;12.10;99.90
12452;DHT22;6291;48.924;12.204;2022-09-16T00:11:24;12.10;99.90
12452;DHT22;6291;48.924;12.204;2022-09-16T00:16:28;12.00;99.90
12452;DHT22;6291;48.924;12.204;2022-09-16T00:21:33;12.00;99.90
12452;DHT22;6291;48.924;12.204;2022-09-16T00:26:37;11.90;99.90
12452;DHT22;6291;48.924;12.204;2022-09-16T00:31:40;11.80;99.90
12452;DHT22;6291;48.924;12.204;2022-09-16T00:36:45;11.80;99.90
12452;DHT22;6291;48.924;12.204;2022-09-16T00:41:48;11.80;99.90
12452;DHT22;6291;48.924;12.204;2022-09-16T00:46:53;11.90;99.90
12452;DHT22;6291;48.924;12.204;2022-09-16T00:52:00;11.90;99.90
12452;DHT22;6291;48.924;12.204;2022-09-16T00:57:05;11.90;99.90
12452;DHT22;6291;48.924;12.204;2022-09-16T01:02:13;11.90;99.90
12452;DHT22;6291;48.924;12.204;2022-09-16T01:07:25;11.90;99.90
12452;DHT22;6291;48.924;12.204;2022-09-16T01:12:30;11.90;99.90
12452;DHT22;6291;48.924;12.204;2022-09-16T01:17:48;11.90;99.90
12452;DHT22;6291;48.924;12.204;2022-09-16T01:23:11;11.80;99.90
12452;DHT22;6291;48.924;12.204;2022-09-16T01:34:04;11.80;99.90
12452;DHT22;6291;48.924;12.204;2022-09-16T01:39:24;11.70;99.90
12452;DHT22;6291;48.924;12.204;2022-09-16T01:44:38;11.80;99.90
12452;DHT22;6291;48.924;12.204;2022-09-16T01:49:55;11.70;99.90
12452;DHT22;6291;48.924;12.204;2022-09-16T01:55:04;11.70;99.90
12452;DHT22;6291;48.924;12.204;2022-09-16T02:00:10;11.70;99.90
12452;DHT22;6291;48.924;12.204;2022-09-16T02:05:21;11.70;99.90
12452;DHT22;6291;48.924;12.204;2022-09-16T02:10:27;11.60;99.90
12452;DHT22;6291;48.924;12.204;2022-09-16T02:15:33;11.70;99.90
12452;DHT22;6291;48.924;12.204;2022-09-16T02:20:40;11.70;99.90
12452;DHT22;6291;48.924;12.204;2022-09-16T02:25:47;11.70;99.90
12452;DHT22;6291;48.924;12.204;2022-09-16T02:30:54;11.70;99.90
12452;DHT22;6291;48.924;12.204;2022-09-16T02:36:02;11.70;99.90
12452;DHT22;6291;48.924;12.204;2022-09-16T02:41:06;16.70;99.90
12452;DHT22;6291;48.924;12.204;2022-09-16T02:46:22;11.90;99.90
12452;DHT22;6291;48.924;12.204;2022-09-16T02:51:32;12.00;99.90
12452;DHT22;6291;48.924;12.204;2022-09-16T02:56:39;12.00;99.90
12452;DHT22;6291;48.924;12.204;2022-09-16T03:01:45;11.90;99.90
12452;DHT22;6291;48.924;12.204;2022-09-16T03:06:50;11.90;99.90
12452;DHT22;6291;48.924;12.204;2022-09-16T03:12:16;11.90;99.90
12452;DHT22;6291;48.924;12.204;2022-09-16T03:17:32;11.90;99.90
12452;DHT22;6291;48.924;12.204;2022-09-16T03:22:47;12.00;99.90
12452;DHT22;6291;48.924;12.204;2022-09-16T03:27:56;12.00;99.90
12452;DHT22;6291;48.924;12.204;2022-09-16T03:33:05;12.00;99.90
12452;DHT22;6291;48.924;12.204;2022-09-16T03:38:13;12.00;99.90
12452;DHT22;6291;48.924;12.204;2022-09-16T03:43:19;11.90;99.90
12452;DHT22;6291;48.924;12.204;2022-09-16T03:48:22;11.90;99.90
12452;DHT22;6291;48.924;12.204;2022-09-16T03:53:27;11.80;99.90
12452;DHT22;6291;48.924;12.204;2022-09-16T03:58:30;11.60;99.90
12452;DHT22;6291;48.924;12.204;2022-09-16T04:03:33;11.70;99.90
12452;DHT22;6291;48.924;12.204;2022-09-16T04:08:39;11.70;99.90
12452;DHT22;6291;48.924;12.204;2022-09-16T04:13:44;11.70;99.90
12452;DHT22;6291;48.924;12.204;2022-09-16T04:18:48;11.80;99.90
12452;DHT22;6291;48.924;12.204;2022-09-16T04:23:52;11.80;99.90
12452;DHT22;6291;48.924;12.204;2022-09-16T04:28:57;11.90;99.90
12452;DHT22;6291;48.924;12.204;2022-09-16T04:34:00;11.90;99.90
12452;DHT22;6291;48.924;12.204;2022-09-16T04:39:05;11.90;99.90
12452;DHT22;6291;48.924;12.204;2022-09-16T04:44:09;11.90;99.90
12452;DHT22;6291;48.924;12.204;2022-09-16T04:49:13;12.00;99.90
12452;DHT22;6291;48.924;12.204;2022-09-16T04:54:17;11.90;99.90
12452;DHT22;6291;48.924;12.204;2022-09-16T04:59:21;11.90;99.90
12452;DHT22;6291;48.924;12.204;2022-09-16T05:04:24;11.90;99.90
12452;DHT22;6291;48.924;12.204;2022-09-16T05:09:29;11.90;99.90
12452;DHT22;6291;48.924;12.204;2022-09-16T05:14:32;11.90;99.90
12452;DHT22;6291;48.924;12.204;2022-09-16T05:19:35;11.90;99.90
12452;DHT22;6291;48.924;12.204;2022-09-16T05:24:40;11.90;99.90
12452;DHT22;6291;48.924;12.204;2022-09-16T05:29:45;11.90;99.90
12452;DHT22;6291;48.924;12.204;2022-09-16T05:34:49;11.90;99.90
12452;DHT22;6291;48.924;12.204;2022-09-16T05:39:53;11.90;99.90
12452;DHT22;6291;48.924;12.204;2022-09-16T05:44:57;11.90;99.90
12452;DHT22;6291;48.924;12.204;2022-09-16T05:50:00;11.80;99.90
12452;DHT22;6291;48.924;12.204;2022-09-16T05:55:06;11.90;99.90
12452;DHT22;6291;48.924;12.204;2022-09-16T06:00:10;12.00;99.90
12452;DHT22;6291;48.924;12.204;2022-09-16T06:05:15;12.10;99.90
12452;DHT22;6291;48.924;12.204;2022-09-16T06:10:19;12.20;99.90
12452;DHT22;6291;48.924;12.204;2022-09-16T06:15:23;12.20;99.90
12452;DHT22;6291;48.924;12.204;2022-09-16T06:20:26;12.20;99.90
12452;DHT22;6291;48.924;12.204;2022-09-16T06:25:31;12.30;99.90
12452;DHT22;6291;48.924;12.204;2022-09-16T06:30:35;12.40;99.90
12452;DHT22;6291;48.924;12.204;2022-09-16T06:35:38;12.50;99.90
12452;DHT22;6291;48.924;12.204;2022-09-16T06:40:43;12.60;99.90
12452;DHT22;6291;48.924;12.204;2022-09-16T06:45:46;12.80;99.90
12452;DHT22;6291;48.924;12.204;2022-09-16T06:50:56;13.10;99.90
12452;DHT22;6291;48.924;12.204;2022-09-16T06:56:03;13.00;99.90
12452;DHT22;6291;48.924;12.204;2022-09-16T07:01:07;13.20;99.90
12452;DHT22;6291;48.924;12.204;2022-09-16T07:06:13;13.10;99.90
12452;DHT22;6291;48.924;12.204;2022-09-16T07:11:19;13.10;99.90
12452;DHT22;6291;48.924;12.204;2022-09-16T07:16:24;13.20;99.90
12452;DHT22;6291;48.924;12.204;2022-09-16T07:21:28;13.20;99.90
12452;DHT22;6291;48.924;12.204;2022-09-16T07:26:34;13.40;99.90
12452;DHT22;6291;48.924;12.204;2022-09-16T07:31:38;13.50;99.90
12452;DHT22;6291;48.924;12.204;2022-09-16T07:36:43;14.30;99.90
12452;DHT22;6291;48.924;12.204;2022-09-16T07:41:48;14.30;99.90
12452;DHT22;6291;48.924;12.204;2022-09-16T07:46:51;14.30;99.90
12452;DHT22;6291;48.924;12.204;2022-09-16T07:51:55;14.30;99.90
12452;DHT22;6291;48.924;12.204;2022-09-16T07:56:59;14.30;99.90
12452;DHT22;6291;48.924;12.204;2022-09-16T08:02:03;14.30;99.90
12452;DHT22;6291;48.924;12.204;2022-09-16T08:07:06;14.70;99.90
12452;DHT22;6291;48.924;12.204;2022-09-16T08:12:11;14.10;99.90
12452;DHT22;6291;48.924;12.204;2022-09-16T08:17:15;14.20;99.90
12452;DHT22;6291;48.924;12.204;2022-09-16T08:22:18;14.50;99.90
12452;DHT22;6291;48.924;12.204;2022-09-16T08:27:25;14.60;99.90
12452;DHT22;6291;48.924;12.204;2022-09-16T08:32:29;14.20;99.90
12452;DHT22;6291;48.924;12.204;2022-09-16T08:37:33;14.10;99.90
12452;DHT22;6291;48.924;12.204;2022-09-16T08:42:52;14.40;99.90
12452;DHT22;6291;48.924;12.204;2022-09-16T08:48:04;14.30;99.90
12452;DHT22;6291;48.924;12.204;2022-09-16T08:53:12;14.20;99.90
12452;DHT22;6291;48.924;12.204;2022-09-16T08:58:19;14.10;99.90
12452;DHT22;6291;48.924;12.204;2022-09-16T09:03:32;13.90;99.90
12452;DHT22;6291;48.924;12.204;2022-09-16T09:08:44;14.00;99.90
12452;DHT22;6291;48.924;12.204;2022-09-16T09:14:04;13.70;99.90
12452;DHT22;6291;48.924;12.204;2022-09-16T09:19:25;13.80;99.90
12452;DHT22;6291;48.924;12.204;2022-09-16T09:30:15;13.70;99.90
12452;DHT22;6291;48.924;12.204;2022-09-16T09:35:27;13.90;99.90
12452;DHT22;6291;48.924;12.204;2022-09-16T09:40:38;13.60;99.90
12452;DHT22;6291;48.924;12.204;2022-09-16T09:45:55;13.70;99.90
12452;DHT22;6291;48.924;12.204;2022-09-16T09:51:05;13.50;99.90
12452;DHT22;6291;48.924;12.204;2022-09-16T09:56:15;13.60;99.90
12452;DHT22;6291;48.924;12.204;2022-09-16T10:01:22;16.10;99.90
12452;DHT22;6291;48.924;12.204;2022-09-16T10:06:28;13.80;99.90
12452;DHT22;6291;48.924;12.204;2022-09-16T10:11:32;13.70;99.90
12452;DHT22;6291;48.924;12.204;2022-09-16T10:16:37;13.90;99.90
12452;DHT22;6291;48.924;12.204;2022-09-16T10:21:43;13.90;99.90
12452;DHT22;6291;48.924;12.204;2022-09-16T10:26:48;14.00;99.90
12452;DHT22;6291;48.924;12.204;2022-09-16T10:31:53;14.30;99.90
12452;DHT22;6291;48.924;12.204;2022-09-16T10:36:59;13.50;99.90
12452;DHT22;6291;48.924;12.204;2022-09-16T10:42:04;13.80;99.90
12452;DHT22;6291;48.924;12.204;2022-09-16T10:47:17;13.80;99.90
12452;DHT22;6291;48.924;12.204;2022-09-16T10:52:23;13.80;99.90
12452;DHT22;6291;48.924;12.204;2022-09-16T10:57:28;13.90;99.90
12452;DHT22;6291;48.924;12.204;2022-09-16T11:03:05;13.90;99.90
12452;DHT22;6291;48.924;12.204;2022-09-16T11:08:13;13.80;99.90
12452;DHT22;6291;48.924;12.204;2022-09-16T11:13:35;13.70;99.90
12452;DHT22;6291;48.924;12.204;2022-09-16T11:18:49;14.10;99.90
12452;DHT22;6291;48.924;12.204;2022-09-16T11:24:10;14.00;99.90
12452;DHT22;6291;48.924;12.204;2022-09-16T11:29:27;14.00;99.90
12452;DHT22;6291;48.924;12.204;2022-09-16T11:34:42;14.10;99.90
12452;DHT22;6291;48.924;12.204;2022-09-16T11:40:01;14.20;99.90
12452;DHT22;6291;48.924;12.204;2022-09-16T11:45:22;14.00;99.90
12452;DHT22;6291;48.924;12.204;2022-09-16T11:50:41;14.10;99.90
12452;DHT22;6291;48.924;12.204;2022-09-16T11:55:50;14.10;99.90
12452;DHT22;6291;48.924;12.204;2022-09-16T12:00:58;14.20;99.90
12452;DHT22;6291;48.924;12.204;2022-09-16T12:06:07;14.20;99.90
12452;DHT22;6291;48.924;12.204;2022-09-16T12:11:18;14.00;99.90
12452;DHT22;6291;48.924;12.204;2022-09-16T12:16:30;14.00;99.90
12452;DHT22;6291;48.924;12.204;2022-09-16T12:21:41;14.00;99.90
12452;DHT22;6291;48.924;12.204;2022-09-16T12:26:50;13.70;99.90
12452;DHT22;6291;48.924;12.204;2022-09-16T12:31:58;13.80;99.90
12452;DHT22;6291;48.924;12.204;2022-09-16T12:37:19;13.80;99.90
12452;DHT22;6291;48.924;12.204;2022-09-16T12:48:26;13.80;99.90
12452;DHT22;6291;48.924;12.204;2022-09-16T12:53:45;13.60;99.90
12452;DHT22;6291;48.924;12.204;2022-09-16T13:04:29;13.30;99.90
12452;DHT22;6291;48.924;12.204;2022-09-16T13:09:36;13.40;99.90
12452;DHT22;6291;48.924;12.204;2022-09-16T13:14:45;13.30;99.90
12452;DHT22;6291;48.924;12.204;2022-09-16T13:19:50;13.10;99.90
12452;DHT22;6291;48.924;12.204;2022-09-16T13:24:59;13.10;99.90
12452;DHT22;6291;48.924;12.204;2022-09-16T13:30:31;13.00;99.90
12452;DHT22;6291;48.924;12.204;2022-09-16T13:35:39;12.80;99.90
12452;DHT22;6291;48.924;12.204;2022-09-16T13:40:54;12.90;99.90
12452;DHT22;6291;48.924;12.204;2022-09-16T13:46:04;12.90;99.90
12452;DHT22;6291;48.924;12.204;2022-09-16T13:51:14;12.80;99.90
12452;DHT22;6291;48.924;12.204;2022-09-16T13:56:34;12.90;99.90
12452;DHT22;6291;48.924;12.204;2022-09-16T14:01:48;12.80;99.90
12452;DHT22;6291;48.924;12.204;2022-09-16T14:07:12;12.80;99.90
12452;DHT22;6291;48.924;12.204;2022-09-16T14:12:29;13.10;99.90
12452;DHT22;6291;48.924;12.204;2022-09-16T14:17:38;13.70;99.90
12452;DHT22;6291;48.924;12.204;2022-09-16T14:22:43;14.10;99.90
12452;DHT22;6291;48.924;12.204;2022-09-16T14:27:48;13.80;99.90
12452;DHT22;6291;48.924;12.204;2022-09-16T14:32:51;13.50;99.90
12452;DHT22;6291;48.924;12.204;2022-09-16T14:37:57;13.80;99.90
12452;DHT22;6291;48.924;12.204;2022-09-16T14:43:06;13.80;99.90
12452;DHT22;6291;48.924;12.204;2022-09-16T14:48:12;13.80;99.90
12452;DHT22;6291;48.924;12.204;2022-09-16T14:53:25;14.50;99.90
12452;DHT22;6291;48.924;12.204;2022-09-16T14:58:38;14.10;99.90
12452;DHT22;6291;48.924;12.204;2022-09-16T15:03:44;13.90;99.90
12452;DHT22;6291;48.924;12.204;2022-09-16T15:08:51;13.80;99.90
12452;DHT22;6291;48.924;12.204;2022-09-16T15:13:59;13.80;99.90
12452;DHT22;6291;48.924;12.204;2022-09-16T15:19:04;14.30;99.90
12452;DHT22;6291;48.924;12.204;2022-09-16T15:24:16;15.80;99.90
12452;DHT22;6291;48.924;12.204;2022-09-16T15:29:29;16.80;99.90
12452;DHT22;6291;48.924;12.204;2022-09-16T15:34:33;17.70;99.90
12452;DHT22;6291;48.924;12.204;2022-09-16T15:39:38;16.90;99.90
12452;DHT22;6291;48.924;12.204;2022-09-16T15:44:47;16.20;99.90
12452;DHT22;6291;48.924;12.204;2022-09-16T15:49:54;18.00;99.90
12452;DHT22;6291;48.924;12.204;2022-09-16T15:55:01;14.60;99.90
12452;DHT22;6291;48.924;12.204;2022-09-16T16:00:09;14.30;99.90
12452;DHT22;6291;48.924;12.204;2022-09-16T16:05:16;15.20;99.90
12452;DHT22;6291;48.924;12.204;2022-09-16T16:10:22;15.60;99.90
12452;DHT22;6291;48.924;12.204;2022-09-16T16:15:29;17.10;99.90
12452;DHT22;6291;48.924;12.204;2022-09-16T16:20:35;15.50;99.90
12452;DHT22;6291;48.924;12.204;2022-09-16T16:25:39;14.30;99.90
12452;DHT22;6291;48.924;12.204;2022-09-16T16:30:43;14.10;99.90
12452;DHT22;6291;48.924;12.204;2022-09-16T16:35:49;13.90;99.90
12452;DHT22;6291;48.924;12.204;2022-09-16T16:40:52;13.80;99.90
12452;DHT22;6291;48.924;12.204;2022-09-16T16:45:57;13.50;99.90
12452;DHT22;6291;48.924;12.204;2022-09-16T16:51:03;13.60;99.90
12452;DHT22;6291;48.924;12.204;2022-09-16T16:56:08;13.60;99.90
12452;DHT22;6291;48.924;12.204;2022-09-16T17:01:18;13.50;99.90
12452;DHT22;6291;48.924;12.204;2022-09-16T17:06:22;13.40;99.90
12452;DHT22;6291;48.924;12.204;2022-09-16T17:11:25;13.30;99.90
12452;DHT22;6291;48.924;12.204;2022-09-16T17:16:32;13.00;99.90
12452;DHT22;6291;48.924;12.204;2022-09-16T17:21:36;13.00;99.90
12452;DHT22;6291;48.924;12.204;2022-09-16T17:26:40;12.90;99.90
12452;DHT22;6291;48.924;12.204;2022-09-16T17:31:45;12.80;99.90
12452;DHT22;6291;48.924;12.204;2022-09-16T17:36:48;12.80;99.90
12452;DHT22;6291;48.924;12.204;2022-09-16T17:41:51;12.70;99.90
12452;DHT22;6291;48.924;12.204;2022-09-16T17:46:56;12.70;99.90
12452;DHT22;6291;48.924;12.204;2022-09-16T17:57:03;12.50;99.90
12452;DHT22;6291;48.924;12.204;2022-09-16T18:02:09;12.50;99.90
12452;DHT22;6291;48.924;12.204;2022-09-16T18:07:13;12.50;99.90
12452;DHT22;6291;48.924;12.204;2022-09-16T18:12:16;12.50;99.90
12452;DHT22;6291;48.924;12.204;2022-09-16T18:17:21;12.40;99.90
12452;DHT22;6291;48.924;12.204;2022-09-16T18:22:25;12.20;99.90
12452;DHT22;6291;48.924;12.204;2022-09-16T18:27:29;12.20;99.90
12452;DHT22;6291;48.924;12.204;2022-09-16T18:32:34;12.00;99.90
12452;DHT22;6291;48.924;12.204;2022-09-16T18:37:37;11.80;99.90
12452;DHT22;6291;48.924;12.204;2022-09-16T18:42:41;11.70;99.90
12452;DHT22;6291;48.924;12.204;2022-09-16T18:47:45;11.60;99.90
12452;DHT22;6291;48.924;12.204;2022-09-16T18:52:48;11.50;99.90
12452;DHT22;6291;48.924;12.204;2022-09-16T18:57:52;11.50;99.90
12452;DHT22;6291;48.924;12.204;2022-09-16T19:02:57;11.40;99.90
12452;DHT22;6291;48.924;12.204;2022-09-16T19:08:00;11.40;99.90
12452;DHT22;6291;48.924;12.204;2022-09-16T19:13:03;11.40;99.90
12452;DHT22;6291;48.924;12.204;2022-09-16T19:18:10;11.20;99.90
12452;DHT22;6291;48.924;12.204;2022-09-16T19:23:14;11.10;99.90
12452;DHT22;6291;48.924;12.204;2022-09-16T19:28:18;11.10;99.90
12452;DHT22;6291;48.924;12.204;2022-09-16T19:33:22;11.00;99.90
12452;DHT22;6291;48.924;12.204;2022-09-16T19:43:30;11.20;99.90
12452;DHT22;6291;48.924;12.204;2022-09-16T19:48:36;11.30;99.90
12452;DHT22;6291;48.924;12.204;2022-09-16T19:53:41;11.20;99.90
12452;DHT22;6291;48.924;12.204;2022-09-16T19:58:45;11.10;99.90
12452;DHT22;6291;48.924;12.204;2022-09-16T20:08:55;11.00;99.90
12452;DHT22;6291;48.924;12.204;2022-09-16T20:14:02;11.00;99.90
12452;DHT22;6291;48.924;12.204;2022-09-16T20:19:09;11.00;99.90
12452;DHT22;6291;48.924;12.204;2022-09-16T20:24:14;11.10;99.90
12452;DHT22;6291;48.924;12.204;2022-09-16T20:29:19;11.30;99.90
12452;DHT22;6291;48.924;12.204;2022-09-16T20:34:24;11.30;99.90
12452;DHT22;6291;48.924;12.204;2022-09-16T20:39:27;11.30;99.90
12452;DHT22;6291;48.924;12.204;2022-09-16T20:44:30;11.20;99.90
12452;DHT22;6291;48.924;12.204;2022-09-16T20:49:35;11.10;99.90
12452;DHT22;6291;48.924;12.204;2022-09-16T20:54:38;11.00;99.90
12452;DHT22;6291;48.924;12.204;2022-09-16T20:59:42;10.90;99.90
12452;DHT22;6291;48.924;12.204;2022-09-16T21:04:46;10.80;99.90
12452;DHT22;6291;48.924;12.204;2022-09-16T21:09:49;10.80;99.90
12452;DHT22;6291;48.924;12.204;2022-09-16T21:14:53;10.70;99.90
12452;DHT22;6291;48.924;12.204;2022-09-16T21:19:59;10.50;99.90
12452;DHT22;6291;48.924;12.204;2022-09-16T21:25:03;10.40;99.90
12452;DHT22;6291;48.924;12.204;2022-09-16T21:30:08;10.40;99.90
12452;DHT22;6291;48.924;12.204;2022-09-16T21:35:13;10.40;99.90
12452;DHT22;6291;48.924;12.204;2022-09-16T21:40:16;10.40;99.90
12452;DHT22;6291;48.924;12.204;2022-09-16T21:45:23;10.30;99.90
12452;DHT22;6291;48.924;12.204;2022-09-16T21:50:28;10.20;99.90
12452;DHT22;6291;48.924;12.204;2022-09-16T21:55:33;10.10;99.90
12452;DHT22;6291;48.924;12.204;2022-09-16T22:00:36;10.10;99.90
12452;DHT22;6291;48.924;12.204;2022-09-16T22:05:41;10.00;99.90
12452;DHT22;6291;48.924;12.204;2022-09-16T22:10:44;9.90;99.90
12452;DHT22;6291;48.924;12.204;2022-09-16T22:15:48;9.90;99.90
12452;DHT22;6291;48.924;12.204;2022-09-16T22:20:54;9.80;99.90
12452;DHT22;6291;48.924;12.204;2022-09-16T22:26:03;9.90;99.90
12452;DHT22;6291;48.924;12.204;2022-09-16T22:36:14;9.90;99.90
12452;DHT22;6291;48.924;12.204;2022-09-16T22:41:18;9.80;99.90
12452;DHT22;6291;48.924;12.204;2022-09-16T22:46:23;9.70;99.90
12452;DHT22;6291;48.924;12.204;2022-09-16T22:51:29;9.80;99.90
12452;DHT22;6291;48.924;12.204;2022-09-16T22:56:34;9.80;99.90
12452;DHT22;6291;48.924;12.204;2022-09-16T23:01:38;9.90;99.90
12452;DHT22;6291;48.924;12.204;2022-09-16T23:06:43;9.90;99.90
12452;DHT22;6291;48.924;12.204;2022-09-16T23:11:47;9.90;99.90
12452;DHT22;6291;48.924;12.204;2022-09-16T23:16:52;9.90;99.90
12452;DHT22;6291;48.924;12.204;2022-09-16T23:21:56;9.80;99.90
12452;DHT22;6291;48.924;12.204;2022-09-16T23:27:00;9.80;99.90
12452;DHT22;6291;48.924;12.204;2022-09-16T23:32:03;9.80;99.90
12452;DHT22;6291;48.924;12.204;2022-09-16T23:37:08;9.80;99.90
12452;DHT22;6291;48.924;12.204;2022-09-16T23:42:11;9.80;99.90
12452;DHT22;6291;48.924;12.204;2022-09-16T23:47:15;9.70;99.90
12452;DHT22;6291;48.924;12.204;2022-09-16T23:52:19;9.50;99.90
12452;DHT22;6291;48.924;12.204;2022-09-16T23:57:23;9.50;99.90
